Lake Isabella, CA

2:39 PM PDT on March 31, 2015 (GMT -0700)
Tehachapi Municipal | | Change Station
CLOSE
Current Station
Airport
Location: Tehachapi,
Elevation: 3999 ft
Nearby Weather Stations
Active Advisory: Wind Advisory Active Notice: Record Report

Elev 3999 ft 35.13 °N, 118.44 °W | Updated 4 minutes ago

Clear
Clear
63 °F
Feels Like 63 °F
N
25
Wind Variable Wind from NW
Gusts 32 mph

Today
High -- | Low -- °F
--% Chance of Precip.
Yesterday
High -- | Low -- °F
Precip. -- in
6:41 AM 7:14 PM
Waxing Gibbous, 89% visible
Pressure 30.10 in
Visibility 8.0 miles
Clouds Clear
Dew Point 27 °F
Humidity 26%
Rainfall 0.00 in
Snow Depth Not available.
UV 8 out of 12
Pollen 10.60 out of 12
Air Quality Not available.
Flu Activity Not available.
METAR KTSP 312135Z AUTO 31022G28KT 8SM CLR 17/M03 A3010 RMK AO2

More Conditions Fewer Conditions

Pressure 30.10 in
Visibility 8.0 miles
Clouds Clear
Dew Point 27 °F
Humidity 26%
Rainfall 0.00 in
Snow Depth Not available.
UV 8 out of 12
Pollen 10.60 out of 12
Air Quality Not available.
Flu Activity Not available.
METAR KTSP 312135Z AUTO 31022G28KT 8SM CLR 17/M03 A3010 RMK AO2

More Conditions Fewer Conditions

10-Day Weather Forecast

Almanac

Astronomy

Mar. 31, 2015 Rise Set
Actual Time
Civil Twilight
Nautical Twilight
Astronomical Twilight
Moon
Length of Visible Light
Length of Day
Tomorrow will be .
, % of the Moon is Illuminated

Today's Extremes

State Highs State Lows

Community

WunderPhotos

Upload Photos

1,809,842 photos uploaded!

WunderBlogs® & News

Nearby

Air Quality

  Air Quality AQ Index Pollutant
Not available.

Snow Depth

Station Depth Elevation

Earthquake Activity

City Distance Mag. Time & Date
Minimum magnitude displayed is 2.5.

Coastal Water Temperatures

Place Temperature

Stations

Nearby Weather Stations

Station Location Temp. Windchill Dew Point Humidity Wind Precip. Elev Updated Type
                   
Wind Advisory
Statement as of 11:06 AM PDT on March 31, 2015

... Wind Advisory remains in effect until 11 PM PDT this evening...

* winds... west 15 to 25 mph with gusts up to 55 mph.

* Timing... winds will pick up today with the strongest winds from
4pm through 8pm. Winds will gradually decrease later tonight.

* Impacts... blowing dust and sand are possible in the Kern
County desert areas below the passes... especially near Mojave
and along the Highway 14 corridor. Strong winds are possible
through the Tehachapi Pass along Highway 58.

Precautionary/preparedness actions...

A Wind Advisory means that winds of 45 mph are expected. Winds
this strong can make driving difficult... especially for high
profile vehicles. Use extra caution.